Time;durP1;ratioP1;P1;durP2;ratioP2;P2;SDS_P1;SDS_P2;PMS_P1;PMS_P2;Temp;Humidity;BMP_temperature;BMP_pressure;BME280_temperature;BME280_humidity;BME280_pressure;Samples;Min_cycle;Max_cycle;Signal;HPM_P1;HPM_P2
2024/02/02 00:01:24;;;;;;;46.70;9.60;;;;;;;5.68;100.00;103248.97;5290188;27;20186;-74
2024/02/02 00:03:54;;;;;;;48.10;9.43;;;;;;;5.69;100.00;103254.19;5288986;28;20380;-74
2024/02/02 00:06:24;;;;;;;39.17;8.75;;;;;;;5.71;100.00;103254.13;5280984;28;20019;-74
2024/02/02 00:08:55;;;;;;;52.38;9.00;;;;;;;5.74;100.00;103251.31;5286754;28;20131;-74
2024/02/02 00:11:25;;;;;;;53.08;9.50;;;;;;;5.76;100.00;103245.91;5284059;28;20023;-74
2024/02/02 00:13:56;;;;;;;37.55;8.07;;;;;;;5.79;100.00;103243.94;5288867;28;20028;-73
2024/02/02 00:16:26;;;;;;;41.22;8.18;;;;;;;5.79;100.00;103240.44;5291250;27;20026;-73
2024/02/02 00:18:57;;;;;;;38.40;8.57;;;;;;;5.82;100.00;103241.13;5292145;27;20101;-74
2024/02/02 00:21:27;;;;;;;44.80;8.45;;;;;;;5.85;100.00;103243.63;5297502;27;20030;-74
2024/02/02 00:23:58;;;;;;;37.03;7.65;;;;;;;5.89;100.00;103237.22;5291563;27;20019;-74
2024/02/02 00:26:28;;;;;;;33.90;9.48;;;;;;;5.94;100.00;103243.22;5291870;27;20384;-74
2024/02/02 00:28:59;;;;;;;35.28;7.38;;;;;;;6.00;100.00;103250.03;5292207;27;20031;-73
2024/02/02 00:31:29;;;;;;;37.33;8.27;;;;;;;6.02;100.00;103237.47;5296827;27;20019;-74
2024/02/02 00:34:00;;;;;;;34.67;8.20;;;;;;;6.06;100.00;103232.84;5289636;27;20397;-74
2024/02/02 00:36:30;;;;;;;38.45;10.07;;;;;;;6.07;100.00;103231.91;5296577;27;20026;-73
2024/02/02 00:39:01;;;;;;;33.90;9.05;;;;;;;6.02;100.00;103218.81;5293711;27;20035;-74
2024/02/02 00:41:31;;;;;;;42.78;8.75;;;;;;;6.04;100.00;103211.63;5287711;28;21199;-74
2024/02/02 00:44:03;;;;;;;45.20;10.65;;;;;;;6.01;100.00;103198.44;5294645;27;20027;-74
2024/02/02 00:46:34;;;;;;;51.05;9.55;;;;;;;6.10;100.00;103205.13;5292491;27;20420;-74
2024/02/02 00:49:04;;;;;;;39.92;8.30;;;;;;;6.13;100.00;103205.81;5292352;27;20023;-74
2024/02/02 00:51:35;;;;;;;38.72;8.07;;;;;;;6.17;100.00;103209.16;5295604;27;20024;-74
2024/02/02 00:54:05;;;;;;;50.03;8.70;;;;;;;6.15;100.00;103211.06;5294010;27;20076;-72
2024/02/02 00:56:36;;;;;;;42.03;9.95;;;;;;;6.19;100.00;103213.50;5286846;27;20024;-74
2024/02/02 00:59:06;;;;;;;48.53;10.23;;;;;;;6.18;100.00;103216.25;5288487;27;20019;-74
2024/02/02 01:01:37;;;;;;;47.47;7.78;;;;;;;6.12;100.00;103214.75;5285613;28;20065;-74
2024/02/02 01:04:08;;;;;;;35.85;7.78;;;;;;;6.13;100.00;103203.16;5292873;27;20022;-73
2024/02/02 01:06:38;;;;;;;36.63;6.78;;;;;;;6.08;100.00;103191.03;5287814;27;20123;-74
2024/02/02 01:09:10;;;;;;;39.60;6.70;;;;;;;6.13;100.00;103189.84;5295806;27;20027;-73
2024/02/02 01:11:41;;;;;;;39.13;7.38;;;;;;;6.14;100.00;103191.56;5295733;27;20038;-74
2024/02/02 01:14:12;;;;;;;32.92;6.88;;;;;;;6.12;100.00;103195.22;5290229;27;20015;-74
2024/02/02 01:16:42;;;;;;;38.20;7.28;;;;;;;6.11;100.00;103172.19;5291645;27;20035;-74
2024/02/02 01:19:12;;;;;;;39.63;6.97;;;;;;;6.13;100.00;103180.97;5295406;27;20023;-74
2024/02/02 01:21:43;;;;;;;35.35;7.20;;;;;;;6.15;100.00;103185.28;5290491;27;20028;-74
2024/02/02 01:24:13;;;;;;;26.23;6.80;;;;;;;6.13;100.00;103184.50;5285288;28;20019;-74
2024/02/02 01:26:44;;;;;;;52.75;8.48;;;;;;;6.14;100.00;103188.03;5293639;27;20051;-73
2024/02/02 01:29:14;;;;;;;31.33;6.82;;;;;;;6.08;100.00;103178.56;5288744;27;20015;-73
2024/02/02 01:31:45;;;;;;;32.85;7.78;;;;;;;6.02;100.00;103175.31;5293329;27;20015;-74
2024/02/02 01:34:15;;;;;;;32.78;6.65;;;;;;;6.01;100.00;103168.28;5295781;27;20540;-74
2024/02/02 01:36:46;;;;;;;42.85;9.82;;;;;;;6.04;100.00;103169.00;5290429;27;20023;-74
2024/02/02 01:39:16;;;;;;;28.83;7.15;;;;;;;6.05;100.00;103167.19;5288668;27;20056;-74
2024/02/02 01:41:47;;;;;;;37.10;9.15;;;;;;;6.05;100.00;103181.38;5290017;27;20030;-73
2024/02/02 01:44:17;;;;;;;31.40;6.80;;;;;;;6.04;100.00;103177.00;5290038;27;20532;-74
2024/02/02 01:46:48;;;;;;;36.83;7.20;;;;;;;6.03;100.00;103169.94;5293142;27;20023;-74
2024/02/02 01:49:19;;;;;;;37.97;7.60;;;;;;;6.05;100.00;103175.19;5291473;27;20024;-74
2024/02/02 01:51:49;;;;;;;32.17;6.43;;;;;;;6.04;100.00;103162.81;5288434;27;20393;-74
2024/02/02 01:54:20;;;;;;;33.50;7.50;;;;;;;6.05;100.00;103159.19;5291704;27;20085;-74
2024/02/02 01:56:50;;;;;;;24.45;6.63;;;;;;;6.07;100.00;103165.28;5286571;28;20036;-73
2024/02/02 01:59:21;;;;;;;28.73;6.90;;;;;;;6.06;100.00;103169.75;5288068;27;20022;-74
2024/02/02 02:01:52;;;;;;;38.35;7.25;;;;;;;6.08;100.00;103159.03;5286202;28;20020;-73
2024/02/02 02:04:23;;;;;;;34.30;6.78;;;;;;;6.03;100.00;103166.41;5292860;27;20035;-74
2024/02/02 02:06:55;;;;;;;32.70;8.80;;;;;;;6.00;100.00;103164.75;5285458;27;20035;-74
2024/02/02 02:09:26;;;;;;;40.17;7.00;;;;;;;6.00;100.00;103170.09;5290597;27;20030;-74
2024/02/02 02:11:56;;;;;;;31.02;6.50;;;;;;;5.98;100.00;103166.66;5292215;27;20212;-74
2024/02/02 02:14:29;;;;;;;31.90;6.78;;;;;;;5.98;100.00;103169.31;5291277;27;20030;-74
2024/02/02 02:16:59;;;;;;;23.50;6.40;;;;;;;5.96;100.00;103160.53;5292800;27;20110;-74
2024/02/02 02:19:30;;;;;;;29.23;6.10;;;;;;;5.90;100.00;103155.50;5292738;27;20023;-74
2024/02/02 02:22:02;;;;;;;31.88;6.45;;;;;;;5.92;100.00;103149.19;5285698;27;20031;-71
2024/02/02 02:24:33;;;;;;;30.30;7.28;;;;;;;5.90;100.00;103144.84;5292810;27;20023;-74
2024/02/02 02:27:04;;;;;;;37.42;6.32;;;;;;;5.94;100.00;103139.28;5292718;27;20050;-74
2024/02/02 02:29:34;;;;;;;35.20;7.10;;;;;;;5.91;100.00;103139.44;5291874;27;20028;-74
2024/02/02 02:32:06;;;;;;;28.77;6.13;;;;;;;5.92;100.00;103138.53;5283806;27;20025;-73
2024/02/02 02:34:37;;;;;;;33.55;6.63;;;;;;;5.95;100.00;103127.69;5287349;27;20031;-74
2024/02/02 02:37:07;;;;;;;27.75;7.05;;;;;;;5.93;100.00;103126.94;5291189;27;20011;-73
2024/02/02 02:39:38;;;;;;;34.42;7.18;;;;;;;5.97;100.00;103122.28;5287100;27;20024;-73
2024/02/02 02:42:08;;;;;;;32.10;5.90;;;;;;;5.98;100.00;103113.38;5288960;27;20381;-73
2024/02/02 02:44:38;;;;;;;29.27;6.75;;;;;;;5.96;100.00;103118.75;5287723;27;20635;-74
2024/02/02 02:47:11;;;;;;;31.30;6.50;;;;;;;5.96;100.00;103124.06;5292729;27;20027;-74
2024/02/02 02:49:41;;;;;;;38.33;5.57;;;;;;;6.00;100.00;103124.78;5290190;27;20054;-73
2024/02/02 02:52:13;;;;;;;31.50;5.15;;;;;;;6.00;100.00;103123.94;5287625;27;20065;-73
2024/02/02 02:54:43;;;;;;;31.83;5.90;;;;;;;6.02;100.00;103117.56;5290733;27;20029;-74
2024/02/02 02:57:14;;;;;;;31.05;6.60;;;;;;;6.03;100.00;103108.66;5290244;27;20081;-73
2024/02/02 02:59:45;;;;;;;29.25;5.78;;;;;;;6.13;100.00;103101.88;5287297;27;20026;-73
2024/02/02 03:02:15;;;;;;;37.92;7.25;;;;;;;6.14;100.00;103110.75;5289661;27;20027;-73
2024/02/02 03:04:46;;;;;;;16.33;4.55;;;;;;;6.15;100.00;103105.31;5284760;27;20472;-74
2024/02/02 03:07:17;;;;;;;40.08;6.30;;;;;;;6.17;100.00;103095.41;5289583;27;20033;-73
2024/02/02 03:09:47;;;;;;;24.98;5.57;;;;;;;6.20;100.00;103097.06;5289144;27;20031;-73
2024/02/02 03:12:21;;;;;;;20.33;5.05;;;;;;;6.12;100.00;103099.28;5284840;27;20028;-74
2024/02/02 03:14:52;;;;;;;29.67;7.45;;;;;;;6.15;100.00;103092.00;5287499;27;20027;-73
2024/02/02 03:17:23;;;;;;;33.65;5.78;;;;;;;6.16;100.00;103092.84;5287847;27;20442;-73
2024/02/02 03:19:56;;;;;;;26.58;7.35;;;;;;;6.12;100.00;103097.47;5285957;27;20515;-73
2024/02/02 03:22:27;;;;;;;28.13;5.55;;;;;;;6.18;100.00;103080.31;5285699;27;20051;-73
2024/02/02 03:24:57;;;;;;;24.63;6.50;;;;;;;6.21;100.00;103075.66;5286133;28;20029;-73
2024/02/02 03:27:28;;;;;;;25.98;5.45;;;;;;;6.17;100.00;103059.91;5288925;27;20502;-73
2024/02/02 03:29:59;;;;;;;30.38;8.13;;;;;;;6.19;100.00;103060.72;5282243;27;20027;-73
2024/02/02 03:32:30;;;;;;;20.60;6.25;;;;;;;6.26;100.00;103062.09;5285670;28;20031;-74
2024/02/02 03:35:00;;;;;;;31.00;6.20;;;;;;;6.23;100.00;103057.78;5285002;28;20422;-73
2024/02/02 03:37:31;;;;;;;33.80;6.53;;;;;;;6.24;100.00;103066.66;5279453;28;20475;-73
2024/02/02 03:40:04;;;;;;;29.77;6.05;;;;;;;6.33;100.00;103065.28;5287918;28;20046;-73
2024/02/02 03:42:39;;;;;;;27.50;5.82;;;;;;;6.25;100.00;103062.19;5283241;28;20042;-74
2024/02/02 03:45:11;;;;;;;22.02;5.05;;;;;;;6.26;100.00;103062.09;5289250;28;20366;-74
2024/02/02 03:47:41;;;;;;;22.00;5.53;;;;;;;6.29;100.00;103048.59;5283372;27;20060;-73
2024/02/02 03:50:12;;;;;;;28.08;5.50;;;;;;;6.30;100.00;103052.97;5290398;28;20056;-74
2024/02/02 03:52:42;;;;;;;23.55;6.20;;;;;;;6.31;100.00;103057.34;5291148;27;20536;-73
2024/02/02 03:55:13;;;;;;;24.70;5.38;;;;;;;6.34;100.00;103053.69;5294456;27;20135;-73
2024/02/02 03:57:43;;;;;;;29.02;6.63;;;;;;;6.31;100.00;103059.16;5290396;27;20118;-73
2024/02/02 04:00:15;;;;;;;29.35;5.45;;;;;;;6.33;100.00;103052.81;5292004;27;20031;-73
2024/02/02 04:02:45;;;;;;;21.80;5.72;;;;;;;6.39;100.00;103056.94;5292637;27;20028;-73
2024/02/02 04:05:16;;;;;;;27.40;7.55;;;;;;;6.37;100.00;103059.69;5294224;27;20034;-73
2024/02/02 04:07:46;;;;;;;21.77;5.43;;;;;;;6.33;100.00;103058.16;5291371;27;20027;-73
2024/02/02 04:10:17;;;;;;;29.17;4.70;;;;;;;6.28;100.00;103052.22;5288248;27;20031;-73
2024/02/02 04:12:47;;;;;;;31.35;5.45;;;;;;;6.31;100.00;103046.69;5290480;27;20388;-73
2024/02/02 04:15:18;;;;;;;22.60;4.82;;;;;;;6.32;100.00;103045.75;5293912;27;21806;-74
2024/02/02 04:17:49;;;;;;;20.85;4.50;;;;;;;6.36;100.00;103039.31;5289535;27;20030;-73
2024/02/02 04:20:19;;;;;;;21.02;5.28;;;;;;;6.28;100.00;103038.03;5289776;27;20093;-73
2024/02/02 04:22:50;;;;;;;24.73;4.65;;;;;;;6.22;100.00;103042.75;5292005;27;20071;-73
2024/02/02 04:25:20;;;;;;;28.63;4.78;;;;;;;6.20;100.00;103043.75;5284732;27;20027;-74
2024/02/02 04:27:51;;;;;;;25.42;4.22;;;;;;;6.25;100.00;103036.38;5284223;27;20092;-74
2024/02/02 04:30:21;;;;;;;16.30;5.30;;;;;;;6.22;100.00;103040.09;5293044;27;20042;-73
2024/02/02 04:32:52;;;;;;;29.70;4.65;;;;;;;6.15;100.00;103037.84;5291262;27;20027;-73
2024/02/02 04:35:23;;;;;;;25.85;4.55;;;;;;;6.10;100.00;103031.88;5292966;27;20027;-73
2024/02/02 04:37:53;;;;;;;16.73;4.35;;;;;;;6.03;100.00;103031.38;5289250;27;20027;-73
2024/02/02 04:40:24;;;;;;;16.73;4.28;;;;;;;5.98;100.00;103028.09;5290986;27;20396;-73
2024/02/02 04:42:54;;;;;;;27.88;4.93;;;;;;;5.92;100.00;103031.97;5289319;27;20034;-73
2024/02/02 04:45:25;;;;;;;29.17;5.07;;;;;;;5.95;100.00;103029.09;5289645;28;20059;-73
2024/02/02 04:47:55;;;;;;;32.90;5.40;;;;;;;5.90;100.00;103039.13;5289501;28;20024;-73
2024/02/02 04:50:28;;;;;;;23.08;5.20;;;;;;;5.84;100.00;103030.59;5289115;28;20389;-73
2024/02/02 04:52:58;;;;;;;21.35;4.63;;;;;;;5.85;100.00;103027.84;5288031;28;20027;-73
2024/02/02 04:55:29;;;;;;;30.77;5.45;;;;;;;5.90;100.00;103035.59;5287649;28;20675;-73
2024/02/02 04:58:00;;;;;;;33.67;5.82;;;;;;;5.87;100.00;103027.75;5287349;28;20102;-73
2024/02/02 05:00:30;;;;;;;18.42;5.40;;;;;;;5.89;100.00;103018.75;5290317;28;20109;-72
2024/02/02 05:03:01;;;;;;;30.75;4.78;;;;;;;5.81;100.00;103002.31;5287650;28;20023;-73
2024/02/02 05:05:32;;;;;;;28.83;5.80;;;;;;;5.77;100.00;103007.88;5286390;28;20037;-72
2024/02/02 05:08:04;;;;;;;29.67;5.47;;;;;;;5.72;100.00;103010.78;5283588;28;20449;-72
2024/02/02 05:10:34;;;;;;;27.08;5.43;;;;;;;5.74;100.00;103018.72;5286904;28;20043;-72
2024/02/02 05:13:05;;;;;;;27.25;6.53;;;;;;;5.75;100.00;103009.78;5286175;28;20442;-72
2024/02/02 05:15:35;;;;;;;34.60;5.93;;;;;;;5.69;100.00;103009.19;5288570;27;20031;-72
2024/02/02 05:18:06;;;;;;;29.08;4.70;;;;;;;5.65;100.00;103012.94;5286522;28;20034;-72
2024/02/02 05:20:38;;;;;;;30.23;5.95;;;;;;;5.63;100.00;103006.00;5285942;28;20024;-72
2024/02/02 05:23:10;;;;;;;22.27;4.75;;;;;;;5.59;100.00;103018.59;5289312;28;20023;-72
2024/02/02 05:25:42;;;;;;;29.65;4.35;;;;;;;5.63;100.00;103019.31;5286420;27;20362;-72
2024/02/02 05:28:12;;;;;;;39.97;5.85;;;;;;;5.65;100.00;103025.41;5287687;28;20019;-73
2024/02/02 05:30:43;;;;;;;29.38;5.00;;;;;;;5.64;100.00;103029.00;5285696;28;20407;-72
2024/02/02 05:33:13;;;;;;;28.80;6.18;;;;;;;5.61;100.00;103022.03;5287609;28;20023;-73
2024/02/02 05:35:44;;;;;;;29.88;4.72;;;;;;;5.59;100.00;103023.06;5285936;28;20062;-72
2024/02/02 05:38:14;;;;;;;21.15;4.70;;;;;;;5.56;100.00;103021.41;5285782;28;20020;-72
2024/02/02 05:40:45;;;;;;;21.50;5.32;;;;;;;5.55;100.00;103014.38;5286646;28;20047;-73
2024/02/02 05:43:16;;;;;;;27.00;4.97;;;;;;;5.50;100.00;103012.88;5244221;28;1140791;-72
2024/02/02 05:45:46;;;;;;;26.60;5.63;;;;;;;5.53;100.00;103012.75;5287894;27;20019;-72
2024/02/02 05:48:17;;;;;;;42.10;7.25;;;;;;;5.51;100.00;103004.81;5275370;27;20028;-72
2024/02/02 05:50:47;;;;;;;23.38;5.43;;;;;;;5.48;100.00;103009.47;5282037;27;20039;-72
2024/02/02 05:53:18;;;;;;;31.88;5.50;;;;;;;5.39;100.00;103006.31;5288244;27;20024;-72
2024/02/02 05:55:48;;;;;;;25.33;5.47;;;;;;;5.35;100.00;102999.44;5287661;27;20149;-73
2024/02/02 05:58:19;;;;;;;30.75;7.38;;;;;;;5.34;100.00;103000.38;5287575;27;20023;-73
2024/02/02 06:00:49;;;;;;;37.15;10.07;;;;;;;5.36;100.00;103009.13;5287349;27;20446;-73
2024/02/02 06:03:20;;;;;;;34.10;5.65;;;;;;;5.32;100.00;102994.28;5285785;28;20024;-73
2024/02/02 06:05:51;;;;;;;36.45;7.05;;;;;;;5.31;100.00;103005.84;5285415;28;20055;-73
2024/02/02 06:08:21;;;;;;;32.30;8.88;;;;;;;5.30;100.00;103021.91;5287395;27;20040;-72
2024/02/02 06:10:52;;;;;;;29.90;7.05;;;;;;;5.30;100.00;103016.59;5283966;27;20431;-72
2024/02/02 06:13:22;;;;;;;30.65;5.45;;;;;;;5.24;100.00;103009.78;5285628;27;20450;-73
2024/02/02 06:15:53;;;;;;;30.20;7.07;;;;;;;5.22;100.00;103009.03;5287077;27;20029;-72
2024/02/02 06:18:23;;;;;;;29.98;5.32;;;;;;;5.19;100.00;102996.72;5286081;27;20039;-72
2024/02/02 06:20:54;;;;;;;21.55;4.80;;;;;;;5.18;100.00;102995.00;5288238;27;20035;-73
2024/02/02 06:23:24;;;;;;;36.03;7.78;;;;;;;5.20;100.00;103001.09;5286245;27;20651;-73
2024/02/02 06:25:55;;;;;;;34.72;6.22;;;;;;;5.24;100.00;103000.94;5285799;27;20074;-73
2024/02/02 06:28:26;;;;;;;19.55;5.95;;;;;;;5.21;100.00;102999.28;5278695;28;20397;-72
2024/02/02 06:30:56;;;;;;;27.40;4.82;;;;;;;5.17;100.00;102998.59;5287718;28;20031;-72
2024/02/02 06:33:27;;;;;;;31.33;5.53;;;;;;;5.16;100.00;102998.66;5286032;27;20019;-73
2024/02/02 06:35:57;;;;;;;28.42;5.25;;;;;;;5.12;100.00;102997.97;5286578;27;20473;-72
2024/02/02 06:38:27;;;;;;;32.28;6.20;;;;;;;5.04;100.00;103001.97;5278013;27;20019;-72
2024/02/02 06:40:58;;;;;;;25.35;5.05;;;;;;;5.09;100.00;103000.78;5286241;28;20481;-72
2024/02/02 06:43:28;;;;;;;39.80;5.05;;;;;;;5.06;100.00;102992.94;5285694;27;20031;-72
2024/02/02 06:45:59;;;;;;;32.67;5.63;;;;;;;5.09;100.00;102997.25;5285813;28;20388;-72
2024/02/02 06:48:30;;;;;;;43.97;7.13;;;;;;;5.09;100.00;102987.47;5284371;27;20023;-72
2024/02/02 06:51:00;;;;;;;37.25;4.90;;;;;;;5.14;100.00;102982.78;5280266;27;20032;-73
2024/02/02 06:53:33;;;;;;;30.55;5.65;;;;;;;5.11;100.00;102980.28;5285502;27;20046;-72
2024/02/02 06:56:28;;;;;;;31.70;4.85;;;;;;;5.08;100.00;102982.25;5285740;28;20039;-73
2024/02/02 06:58:59;;;;;;;38.85;5.95;;;;;;;5.10;100.00;102991.00;5280597;27;20035;-74
2024/02/02 07:01:30;;;;;;;39.60;5.22;;;;;;;5.16;100.00;102985.34;5284042;27;20050;-73
2024/02/02 07:04:03;;;;;;;30.95;5.18;;;;;;;5.14;100.00;102989.91;5286862;27;20024;-73
2024/02/02 07:06:34;;;;;;;42.65;8.00;;;;;;;5.19;100.00;102993.19;5273143;27;20162;-73
2024/02/02 07:09:26;;;;;;;27.80;5.22;;;;;;;5.19;100.00;102996.72;5273090;27;20406;-73
2024/02/02 07:12:03;;;;;;;16.60;4.50;;;;;;;5.17;100.00;102992.38;5279442;28;20043;-73
2024/02/02 07:14:43;;;;;;;35.13;4.53;;;;;;;5.21;100.00;102996.63;5282034;27;20107;-73
2024/02/02 07:17:24;;;;;;;28.15;5.10;;;;;;;5.22;100.00;102995.72;5278554;28;20512;-73
2024/02/02 07:19:56;;;;;;;30.65;4.65;;;;;;;5.30;100.00;102997.97;5277228;27;20027;-73
2024/02/02 07:22:38;;;;;;;29.00;6.47;;;;;;;5.25;100.00;103005.31;5282782;28;20411;-73
2024/02/02 07:25:12;;;;;;;29.02;4.78;;;;;;;5.25;100.00;103007.97;5283791;28;20027;-71
2024/02/02 07:27:46;;;;;;;27.15;3.97;;;;;;;5.25;100.00;103011.50;5282449;28;20429;-72
2024/02/02 07:30:43;;;;;;;25.83;5.30;;;;;;;5.32;100.00;103012.94;5283623;28;20085;-72
2024/02/02 07:33:26;;;;;;;23.13;4.63;;;;;;;5.35;100.00;103011.88;5284394;27;20054;-74
2024/02/02 07:35:58;;;;;;;31.58;6.70;;;;;;;5.37;100.00;103016.22;5283564;28;20023;-73
2024/02/02 07:38:53;;;;;;;25.98;4.95;;;;;;;5.48;100.00;103020.13;5283207;28;20059;-72
2024/02/02 07:41:26;;;;;;;30.13;5.07;;;;;;;5.53;100.00;103023.41;5282389;28;20470;-73
2024/02/02 07:43:59;;;;;;;41.55;10.25;;;;;;;5.56;100.00;103025.88;5282631;28;20020;-73
2024/02/02 07:46:29;;;;;;;70.72;25.52;;;;;;;5.62;100.00;103022.88;5283200;28;20028;-73
2024/02/02 07:49:00;;;;;;;63.20;23.98;;;;;;;5.63;100.00;103027.28;5283036;28;20031;-72
2024/02/02 07:51:30;;;;;;;28.65;10.07;;;;;;;5.76;100.00;103027.47;5282052;28;20036;-73
2024/02/02 07:54:01;;;;;;;36.10;8.52;;;;;;;5.80;100.00;103027.25;5283678;28;20038;-73
2024/02/02 07:56:31;;;;;;;20.08;4.95;;;;;;;5.81;100.00;103022.78;5283060;28;20054;-72
2024/02/02 07:59:02;;;;;;;28.33;5.82;;;;;;;5.88;100.00;103011.72;5282277;28;20389;-73
2024/02/02 08:01:33;;;;;;;43.25;6.05;;;;;;;5.90;100.00;103020.47;5284041;28;20504;-73
2024/02/02 08:04:04;;;;;;;30.55;5.38;;;;;;;5.89;100.00;103013.44;5283367;28;20050;-72
2024/02/02 08:06:35;;;;;;;26.48;4.35;;;;;;;5.95;100.00;103014.94;5282886;27;20023;-73
2024/02/02 08:09:09;;;;;;;35.10;5.03;;;;;;;6.02;100.00;103010.13;5276673;28;20062;-73
2024/02/02 08:11:39;;;;;;;17.38;3.83;;;;;;;6.05;100.00;103008.16;5281811;28;20713;-73
2024/02/02 08:14:10;;;;;;;23.20;5.25;;;;;;;6.08;100.00;103007.16;5283517;28;20027;-73
2024/02/02 08:16:40;;;;;;;26.92;5.45;;;;;;;6.08;100.00;103020.47;5282645;28;20026;-73
2024/02/02 08:19:11;;;;;;;35.05;5.78;;;;;;;6.14;100.00;103012.13;5282977;28;20034;-73
2024/02/02 08:21:41;;;;;;;28.30;4.05;;;;;;;6.14;100.00;103012.97;5281953;28;20527;-73
2024/02/02 08:24:12;;;;;;;24.95;5.32;;;;;;;6.18;100.00;103011.88;5282998;28;20026;-73
2024/02/02 08:26:42;;;;;;;27.80;4.95;;;;;;;6.15;100.00;103011.19;5282499;28;20023;-73
2024/02/02 08:29:13;;;;;;;23.98;5.15;;;;;;;6.20;100.00;103007.31;5282379;28;20080;-73
2024/02/02 08:31:44;;;;;;;31.02;6.10;;;;;;;6.22;100.00;103005.44;5282576;28;20031;-73
2024/02/02 08:34:15;;;;;;;30.15;5.82;;;;;;;6.20;100.00;102998.47;5285717;28;20026;-73
2024/02/02 08:36:46;;;;;;;36.83;6.28;;;;;;;6.21;100.00;102992.19;5284704;27;20035;-73
2024/02/02 08:39:17;;;;;;;21.10;4.60;;;;;;;6.31;100.00;103000.50;5288861;27;20064;-73
2024/02/02 08:41:47;;;;;;;27.88;5.93;;;;;;;6.32;100.00;102996.91;5288312;27;20043;-73
2024/02/02 08:44:22;;;;;;;22.05;5.45;;;;;;;6.47;100.00;103001.38;5289187;27;20031;-73
2024/02/02 08:46:52;;;;;;;35.75;5.80;;;;;;;6.40;100.00;102998.19;5288129;27;20042;-73
2024/02/02 08:49:29;;;;;;;39.28;7.13;;;;;;;6.49;100.00;103005.69;5288263;27;20272;-73
2024/02/02 08:52:02;;;;;;;37.58;5.85;;;;;;;6.55;100.00;103007.13;5274875;28;20484;-73
2024/02/02 08:54:36;;;;;;;34.20;7.78;;;;;;;6.53;100.00;102992.19;5288643;27;20027;-73
2024/02/02 08:57:18;;;;;;;47.85;18.27;;;;;;;6.60;100.00;102997.06;5287973;27;20039;-73
2024/02/02 08:59:52;;;;;;;24.35;6.50;;;;;;;6.52;100.00;102993.97;5286414;27;20034;-73
2024/02/02 09:02:36;;;;;;;39.60;8.32;;;;;;;6.61;100.00;102990.78;5287614;27;20020;-72
2024/02/02 09:05:17;;;;;;;39.95;8.60;;;;;;;6.55;100.00;103000.94;5282954;27;20027;-73
2024/02/02 09:07:52;;;;;;;41.20;10.07;;;;;;;6.56;100.00;103000.00;5286181;27;20020;-73
2024/02/02 09:10:43;;;;;;;36.63;8.27;;;;;;;6.66;100.00;102999.38;5286245;27;20651;-73
2024/02/02 09:13:19;;;;;;;40.78;10.10;;;;;;;6.70;100.00;103003.59;5284088;27;20024;-73
2024/02/02 09:15:49;;;;;;;48.10;16.75;;;;;;;6.77;100.00;103013.91;5286879;27;20418;-73
2024/02/02 09:18:33;;;;;;;36.30;9.88;;;;;;;6.78;100.00;103010.28;5288237;27;20019;-73
2024/02/02 09:21:05;;;;;;;35.22;8.50;;;;;;;6.79;100.00;103006.69;5281267;27;20401;-73
2024/02/02 09:23:39;;;;;;;35.47;7.90;;;;;;;6.78;100.00;103005.81;5285710;28;20118;-73
2024/02/02 09:26:11;;;;;;;46.17;12.10;;;;;;;6.83;100.00;103014.41;5286484;28;20046;-73
2024/02/02 09:28:43;;;;;;;36.85;8.68;;;;;;;6.83;100.00;103014.41;5287437;27;20015;-73
2024/02/02 09:31:20;;;;;;;32.17;8.02;;;;;;;6.82;100.00;103018.00;5285301;28;20391;-73
2024/02/02 09:33:53;;;;;;;33.97;8.93;;;;;;;6.92;100.00;103013.00;5287138;27;20124;-73
2024/02/02 09:36:26;;;;;;;26.65;8.05;;;;;;;6.95;100.00;103012.84;5286354;27;20115;-73
2024/02/02 09:39:00;;;;;;;43.58;9.65;;;;;;;7.06;100.00;103015.72;5286058;27;20031;-73
2024/02/02 09:41:49;;;;;;;42.00;9.85;;;;;;;7.10;100.00;103017.28;5285440;27;20027;-73
2024/02/02 09:44:41;;;;;;;37.35;9.52;;;;;;;7.10;100.00;103003.06;5287612;27;20016;-73
2024/02/02 09:47:43;;;;;;;35.88;9.93;;;;;;;7.11;100.00;103013.63;5286667;27;20051;-73
2024/02/02 09:50:42;;;;;;;46.33;12.27;;;;;;;7.07;100.00;103011.25;5281381;27;20043;-74
2024/02/02 09:53:20;;;;;;;40.05;9.70;;;;;;;7.15;100.00;103009.00;5282095;27;20031;-73
2024/02/02 09:56:04;;;;;;;42.15;9.98;;;;;;;7.15;100.00;103017.84;5287086;27;20055;-73
2024/02/02 09:58:43;;;;;;;39.65;10.18;;;;;;;7.19;100.00;103015.88;5285765;27;20043;-73
2024/02/02 10:01:29;;;;;;;41.33;12.07;;;;;;;7.27;100.00;103018.91;5284686;28;20450;-73
2024/02/02 10:04:12;;;;;;;;;;;;;;;7.22;100.00;103018.34;5286344;27;20023;-74
2024/02/02 10:06:49;;;;;;;45.22;12.23;;;;;;;7.34;100.00;103014.94;5286671;27;19912;-73
2024/02/02 10:09:37;;;;;;;60.28;12.73;;;;;;;7.39;100.00;103015.53;5284734;27;20035;-73
2024/02/02 10:12:40;;;;;;;49.05;13.48;;;;;;;7.40;100.00;103014.56;5279739;27;20026;-73
2024/02/02 10:15:26;;;;;;;53.63;13.73;;;;;;;7.44;100.00;103018.78;5281654;27;20114;-74
2024/02/02 10:18:14;;;;;;;46.95;14.20;;;;;;;7.43;100.00;103013.50;5285465;27;20093;-74
2024/02/02 10:21:10;;;;;;;55.33;14.27;;;;;;;7.44;100.00;103010.78;5283759;27;20137;-74
2024/02/02 10:23:45;;;;;;;;;;;;;;;7.42;100.00;103006.47;5287188;27;20031;-73
2024/02/02 10:26:41;;;;;;;59.33;12.98;;;;;;;7.52;100.00;103003.13;5285708;27;20311;-73
2024/02/02 10:29:21;;;;;;;;;;;;;;;7.55;100.00;102996.75;5280902;27;20051;-73
2024/02/02 10:32:36;;;;;;;54.55;14.00;;;;;;;7.74;100.00;103002.69;5283134;27;19918;-73
2024/02/02 10:35:48;;;;;;;59.65;14.68;;;;;;;7.78;100.00;103003.34;5280421;27;20107;-73
2024/02/02 10:38:31;;;;;;;55.20;14.82;;;;;;;7.80;100.00;102998.78;5280605;28;20028;-73
2024/02/02 10:41:15;;;;;;;42.97;14.27;;;;;;;7.90;100.00;102991.88;5273966;27;20031;-72
2024/02/02 10:44:08;;;;;;;43.47;15.23;;;;;;;7.89;100.00;103002.69;5276713;27;20032;-73
2024/02/02 10:46:49;;;;;;;56.03;15.25;;;;;;;7.90;100.00;103002.59;5284561;27;20053;-73
2024/02/02 10:49:39;;;;;;;58.40;16.13;;;;;;;7.86;100.00;103003.72;5275066;27;20030;-72
2024/02/02 10:52:24;;;;;;;49.20;15.57;;;;;;;7.87;100.00;103017.94;5271177;27;20028;-73
2024/02/02 10:55:04;;;;;;;61.97;14.57;;;;;;;7.81;100.00;103008.50;5275530;27;20031;-72
2024/02/02 10:57:45;;;;;;;49.55;15.00;;;;;;;7.96;100.00;103012.03;5277122;28;20035;-72
2024/02/02 11:00:21;;;;;;;57.20;16.88;;;;;;;7.97;100.00;103003.91;5275305;27;20493;-72
2024/02/02 11:03:12;;;;;;;54.72;16.33;;;;;;;8.08;100.00;103005.03;5269881;28;20484;-72
2024/02/02 11:05:58;;;;;;;47.90;15.27;;;;;;;8.09;100.00;103004.09;5271090;27;20020;-73
2024/02/02 11:08:35;;;;;;;53.63;15.27;;;;;;;8.10;100.00;102997.78;5278009;28;20538;-73
2024/02/02 11:11:11;;;;;;;59.85;16.52;;;;;;;8.13;100.00;103003.78;5270433;28;20031;-72
2024/02/02 11:13:52;;;;;;;;;;;;;;;8.15;100.00;102991.19;5286110;27;20043;-73
2024/02/02 11:16:46;;;;;;;61.50;19.95;;;;;;;8.23;100.00;102988.00;5283124;28;19918;-73
2024/02/02 11:19:25;;;;;;;53.20;16.20;;;;;;;8.21;100.00;102979.25;5279424;27;20035;-73
2024/02/02 11:22:18;;;;;;;50.75;16.63;;;;;;;8.15;100.00;102982.31;5283457;28;20038;-72
2024/02/02 11:24:56;;;;;;;60.58;16.70;;;;;;;8.30;100.00;102975.97;5283344;28;20080;-73
2024/02/02 11:27:36;;;;;;;54.25;16.77;;;;;;;8.32;100.00;102971.38;5282539;28;20391;-73
2024/02/02 11:30:16;;;;;;;47.53;17.23;;;;;;;8.41;100.00;102957.44;5282638;28;20030;-73
2024/02/02 11:32:59;;;;;;;52.67;15.65;;;;;;;8.30;100.00;102946.56;5275041;28;20020;-72
2024/02/02 11:35:49;;;;;;;63.42;17.35;;;;;;;8.08;100.00;102939.06;5282447;27;20100;-73
2024/02/02 11:38:32;;;;;;;56.17;17.42;;;;;;;8.25;100.00;102946.84;5278095;28;20023;-72
2024/02/02 11:41:07;;;;;;;53.45;17.90;;;;;;;8.25;100.00;102941.50;5277246;28;20061;-73
2024/02/02 11:43:38;;;;;;;56.08;16.52;;;;;;;8.31;100.00;102943.78;5282801;28;20037;-73
2024/02/02 11:46:11;;;;;;;56.08;18.00;;;;;;;8.33;100.00;102943.66;5281841;28;20103;-73
2024/02/02 11:48:43;;;;;;;60.20;17.10;;;;;;;8.43;100.00;102931.44;5283617;28;20023;-73